createdAt,value
2023-12-11T00:00:53.572Z,100.00
2023-12-11T00:03:42.853Z,100.00
2023-12-11T00:06:14.519Z,100.00
2023-12-11T00:08:45.589Z,100.00
2023-12-11T00:11:14.920Z,100.00
2023-12-11T00:13:46.018Z,100.00
2023-12-11T00:16:15.937Z,100.00
2023-12-11T00:18:47.462Z,100.00
2023-12-11T00:21:18.726Z,100.00
2023-12-11T00:23:49.955Z,100.00
2023-12-11T00:26:19.389Z,100.00
2023-12-11T00:28:50.522Z,100.00
2023-12-11T00:31:19.936Z,100.00
2023-12-11T00:33:51.399Z,100.00
2023-12-11T00:36:22.697Z,100.00
2023-12-11T00:38:53.901Z,100.00
2023-12-11T00:41:23.238Z,100.00
2023-12-11T00:43:54.326Z,100.00
2023-12-11T00:46:23.957Z,100.00
2023-12-11T00:48:55.241Z,100.00
2023-12-11T00:51:26.402Z,100.00
2023-12-11T00:53:58.473Z,100.00
2023-12-11T00:56:27.829Z,100.00
2023-12-11T00:58:58.940Z,100.00
2023-12-11T01:01:28.378Z,100.00
2023-12-11T01:03:59.722Z,100.00
2023-12-11T01:06:30.843Z,100.00
2023-12-11T01:09:00.584Z,100.00
2023-12-11T01:11:31.949Z,100.00
2023-12-11T01:14:03.118Z,100.00
2023-12-11T01:16:32.458Z,100.00
2023-12-11T01:19:03.789Z,100.00
2023-12-11T01:21:35.006Z,100.00
2023-12-11T01:24:06.040Z,100.00
2023-12-11T01:26:37.128Z,100.00
2023-12-11T01:29:06.586Z,100.00
2023-12-11T01:31:37.634Z,100.00
2023-12-11T01:34:09.009Z,100.00
2023-12-11T01:36:40.277Z,100.00
2023-12-11T01:39:12.083Z,100.00
2023-12-11T01:41:43.152Z,100.00
2023-12-11T01:44:12.561Z,100.00
2023-12-11T01:46:44.262Z,100.00
2023-12-11T01:49:15.516Z,100.00
2023-12-11T01:51:47.890Z,100.00
2023-12-11T01:54:19.172Z,100.00
2023-12-11T01:56:50.336Z,100.00
2023-12-11T01:59:19.875Z,100.00
2023-12-11T02:01:52.843Z,100.00
2023-12-11T02:04:24.270Z,100.00
2023-12-11T02:06:55.389Z,100.00
2023-12-11T02:09:24.970Z,100.00
2023-12-11T02:11:56.170Z,100.00
2023-12-11T02:14:27.260Z,100.00
2023-12-11T02:16:57.080Z,100.00
2023-12-11T02:19:28.907Z,100.00
2023-12-11T02:22:00.216Z,100.00
2023-12-11T02:24:40.780Z,100.00
2023-12-11T02:27:12.154Z,100.00
2023-12-11T02:29:41.574Z,100.00
2023-12-11T02:32:16.057Z,100.00
2023-12-11T02:34:47.314Z,100.00
2023-12-11T02:37:18.529Z,100.00
2023-12-11T02:39:48.241Z,100.00
2023-12-11T02:42:19.362Z,100.00
2023-12-11T02:44:48.776Z,100.00
2023-12-11T02:47:19.862Z,100.00
2023-12-11T02:49:49.221Z,100.00
2023-12-11T02:52:20.982Z,100.00
2023-12-11T02:54:52.181Z,100.00
2023-12-11T02:57:23.358Z,100.00
2023-12-11T02:59:54.792Z,100.00
2023-12-11T03:02:25.849Z,100.00
2023-12-11T03:04:55.220Z,100.00
2023-12-11T03:07:26.440Z,100.00
2023-12-11T03:09:57.599Z,100.00
2023-12-11T03:12:26.937Z,100.00
2023-12-11T03:14:58.056Z,100.00
2023-12-11T03:17:27.509Z,100.00
2023-12-11T03:19:59.079Z,100.00
2023-12-11T03:22:30.599Z,100.00
2023-12-11T03:25:01.746Z,100.00
2023-12-11T03:27:33.296Z,100.00
2023-12-11T03:30:05.087Z,100.00
2023-12-11T03:32:37.274Z,100.00
2023-12-11T03:35:09.340Z,100.00
2023-12-11T03:37:40.421Z,100.00
2023-12-11T03:40:13.454Z,100.00
2023-12-11T03:42:47.212Z,100.00
2023-12-11T03:45:18.799Z,100.00
2023-12-11T03:47:50.284Z,100.00
2023-12-11T03:50:21.723Z,100.00
2023-12-11T03:52:54.281Z,100.00
2023-12-11T03:55:31.883Z,100.00
2023-12-11T03:58:03.185Z,100.00
2023-12-11T04:00:34.475Z,100.00
2023-12-11T04:03:08.425Z,100.00
2023-12-11T04:05:39.613Z,100.00
2023-12-11T04:08:10.688Z,100.00
2023-12-11T04:10:40.064Z,100.00
2023-12-11T04:13:11.172Z,100.00
2023-12-11T04:15:40.649Z,100.00
2023-12-11T04:18:11.815Z,100.00
2023-12-11T04:20:41.168Z,100.00
2023-12-11T04:23:12.387Z,100.00
2023-12-11T04:25:41.781Z,100.00
2023-12-11T04:28:12.883Z,100.00
2023-12-11T04:30:42.280Z,100.00
2023-12-11T04:33:13.492Z,100.00
2023-12-11T04:35:45.191Z,100.00
2023-12-11T04:38:16.275Z,100.00
2023-12-11T04:40:45.626Z,100.00
2023-12-11T04:43:16.769Z,100.00
2023-12-11T04:45:46.454Z,100.00
2023-12-11T04:48:18.322Z,100.00
2023-12-11T04:50:49.774Z,100.00
2023-12-11T04:53:20.890Z,100.00
2023-12-11T04:55:50.396Z,100.00
2023-12-11T04:58:21.648Z,100.00
2023-12-11T05:00:52.825Z,100.00
2023-12-11T05:03:22.157Z,100.00
2023-12-11T05:05:53.359Z,100.00
2023-12-11T05:08:23.389Z,100.00
2023-12-11T05:10:55.249Z,100.00
2023-12-11T05:13:24.628Z,100.00
2023-12-11T05:15:55.743Z,100.00
2023-12-11T05:18:27.222Z,100.00
2023-12-11T05:20:56.711Z,100.00
2023-12-11T05:23:27.829Z,100.00
2023-12-11T05:25:57.175Z,100.00
2023-12-11T05:28:28.269Z,100.00
2023-12-11T05:30:57.690Z,100.00
2023-12-11T05:33:29.028Z,100.00
2023-12-11T05:36:00.175Z,100.00
2023-12-11T05:38:29.529Z,100.00
2023-12-11T05:41:01.334Z,100.00
2023-12-11T05:43:32.437Z,100.00
2023-12-11T05:46:01.819Z,100.00
2023-12-11T05:48:33.104Z,100.00
2023-12-11T05:51:04.661Z,100.00
2023-12-11T05:53:35.708Z,100.00
2023-12-11T05:56:06.166Z,100.00
2023-12-11T05:58:37.433Z,100.00
2023-12-11T06:01:08.896Z,100.00
2023-12-11T06:03:40.162Z,100.00
2023-12-11T06:06:16.576Z,100.00
2023-12-11T06:08:47.621Z,100.00
2023-12-11T06:11:17.080Z,100.00
2023-12-11T06:13:48.226Z,100.00
2023-12-11T06:16:20.838Z,100.00
2023-12-11T06:18:52.123Z,100.00
2023-12-11T06:21:23.799Z,100.00
2023-12-11T06:23:54.889Z,100.00
2023-12-11T06:26:28.576Z,100.00
2023-12-11T06:28:59.831Z,100.00
2023-12-11T06:31:31.603Z,100.00
2023-12-11T06:34:04.115Z,100.00
2023-12-11T06:36:35.466Z,100.00
2023-12-11T06:39:06.725Z,100.00
2023-12-11T06:41:39.195Z,100.00
2023-12-11T06:44:13.011Z,100.00
2023-12-11T06:46:45.169Z,100.00
2023-12-11T06:49:17.623Z,100.00
2023-12-11T06:51:51.605Z,100.00
2023-12-11T06:54:44.236Z,100.00
2023-12-11T06:57:15.450Z,100.00
2023-12-11T06:59:46.505Z,100.00
2023-12-11T07:02:17.911Z,100.00
2023-12-11T07:04:49.232Z,100.00
2023-12-11T07:07:20.537Z,100.00
2023-12-11T07:09:52.015Z,100.00
2023-12-11T07:12:23.377Z,100.00
2023-12-11T07:14:54.508Z,100.00
2023-12-11T07:17:23.953Z,100.00
2023-12-11T07:19:55.128Z,100.00
2023-12-11T07:22:26.295Z,100.00
2023-12-11T07:24:57.471Z,100.00
2023-12-11T07:27:30.296Z,100.00
2023-12-11T07:30:01.629Z,100.00
2023-12-11T07:32:32.900Z,100.00
2023-12-11T07:35:02.477Z,100.00
2023-12-11T07:37:33.750Z,100.00
2023-12-11T07:40:07.582Z,100.00
2023-12-11T07:42:38.908Z,100.00
2023-12-11T07:45:12.648Z,100.00
2023-12-11T07:47:43.864Z,100.00
2023-12-11T07:50:15.133Z,100.00
2023-12-11T07:52:46.349Z,100.00
2023-12-11T07:55:17.685Z,100.00
2023-12-11T07:57:49.195Z,100.00
2023-12-11T08:00:22.700Z,100.00
2023-12-11T08:03:29.340Z,100.00
2023-12-11T08:07:07.256Z,100.00
2023-12-11T08:09:40.437Z,100.00
2023-12-11T08:12:11.622Z,100.00
2023-12-11T08:14:42.895Z,100.00
2023-12-11T08:17:14.624Z,100.00
2023-12-11T08:19:45.890Z,100.00
2023-12-11T08:22:17.101Z,100.00
2023-12-11T08:24:48.325Z,100.00
2023-12-11T08:27:19.641Z,100.00
2023-12-11T08:29:51.199Z,100.00
2023-12-11T08:32:22.893Z,100.00
2023-12-11T08:34:54.507Z,100.00
2023-12-11T08:37:25.655Z,100.00
2023-12-11T08:39:57.099Z,100.00
2023-12-11T08:42:28.663Z,100.00
2023-12-11T08:44:59.854Z,100.00
2023-12-11T08:47:32.563Z,100.00
2023-12-11T08:50:07.207Z,100.00
2023-12-11T08:52:38.826Z,100.00
2023-12-11T08:55:11.258Z,100.00
2023-12-11T08:57:44.218Z,100.00
2023-12-11T09:00:17.252Z,100.00
2023-12-11T09:02:48.462Z,100.00
2023-12-11T09:05:20.137Z,100.00
2023-12-11T09:07:52.286Z,100.00
2023-12-11T09:10:23.922Z,100.00
2023-12-11T09:12:56.956Z,100.00
2023-12-11T09:15:28.314Z,100.00
2023-12-11T09:17:59.414Z,100.00
2023-12-11T09:20:30.843Z,100.00
2023-12-11T09:23:02.026Z,100.00
2023-12-11T09:25:31.694Z,100.00
2023-12-11T09:28:02.906Z,100.00
2023-12-11T09:30:34.081Z,100.00
2023-12-11T09:33:07.903Z,100.00
2023-12-11T09:35:40.732Z,100.00
2023-12-11T09:38:11.887Z,100.00
2023-12-11T09:40:44.734Z,100.00
2023-12-11T09:43:18.445Z,100.00
2023-12-11T09:45:52.281Z,100.00
2023-12-11T09:48:23.590Z,100.00
2023-12-11T09:50:54.805Z,100.00
2023-12-11T09:53:26.279Z,100.00
2023-12-11T09:55:58.433Z,100.00
2023-12-11T09:58:29.610Z,100.00
2023-12-11T10:01:01.090Z,100.00
2023-12-11T10:03:32.896Z,100.00
2023-12-11T10:06:04.285Z,100.00
2023-12-11T10:08:42.413Z,100.00
2023-12-11T10:11:15.290Z,100.00
2023-12-11T10:13:47.098Z,100.00
2023-12-11T10:16:32.865Z,99.49
2023-12-11T10:19:04.432Z,96.92
2023-12-11T10:21:40.856Z,96.85
2023-12-11T10:24:13.853Z,97.41
2023-12-11T10:26:55.329Z,95.76
2023-12-11T10:29:27.466Z,95.70
2023-12-11T10:32:04.618Z,97.37
2023-12-11T10:34:45.807Z,97.20
2023-12-11T10:37:17.721Z,97.12
2023-12-11T10:39:58.874Z,95.50
2023-12-11T10:42:30.280Z,94.86
2023-12-11T10:45:03.148Z,93.97
2023-12-11T10:47:35.164Z,94.95
2023-12-11T10:50:09.082Z,95.09
2023-12-11T10:52:42.576Z,95.58
2023-12-11T10:55:14.565Z,96.22
2023-12-11T10:57:46.839Z,94.93
2023-12-11T11:00:20.000Z,95.73
2023-12-11T11:02:55.663Z,94.82
2023-12-11T11:05:29.254Z,95.04
2023-12-11T11:08:10.261Z,95.25
2023-12-11T11:10:50.620Z,94.10
2023-12-11T11:13:24.573Z,95.30
2023-12-11T11:15:56.132Z,94.32
2023-12-11T11:18:52.826Z,95.05
2023-12-11T11:21:24.103Z,93.28
2023-12-11T11:23:55.226Z,95.20
2023-12-11T11:26:36.214Z,93.43
2023-12-11T11:29:07.709Z,93.18
2023-12-11T11:31:53.162Z,93.87
2023-12-11T11:34:46.500Z,93.67
2023-12-11T11:42:32.041Z,89.73
2023-12-11T11:45:05.401Z,90.79
2023-12-11T11:47:37.354Z,89.26
2023-12-11T11:50:12.497Z,88.71
2023-12-11T11:52:43.981Z,90.81
2023-12-11T11:55:29.214Z,91.57
2023-12-11T11:58:21.225Z,89.41
2023-12-11T12:01:03.295Z,89.60
2023-12-11T12:03:43.338Z,90.77
2023-12-11T12:06:16.801Z,90.80
2023-12-11T12:08:48.125Z,90.73
2023-12-11T12:11:19.562Z,89.93
2023-12-11T12:13:50.794Z,91.22
2023-12-11T12:16:30.844Z,91.50
2023-12-11T12:19:02.268Z,90.96
2023-12-11T12:21:33.440Z,90.02
2023-12-11T12:24:06.837Z,91.30
2023-12-11T12:26:39.477Z,92.85
2023-12-11T12:29:11.038Z,92.36
2023-12-11T12:31:42.835Z,92.61
2023-12-11T12:34:18.827Z,92.63
2023-12-11T12:36:50.422Z,93.96
2023-12-11T12:39:22.210Z,95.65
2023-12-11T12:41:55.438Z,97.25
2023-12-11T12:44:26.748Z,98.96
2023-12-11T12:47:02.045Z,99.95
2023-12-11T12:49:33.740Z,100.00
2023-12-11T12:52:05.158Z,100.00
2023-12-11T12:54:51.629Z,100.00
2023-12-11T12:57:22.840Z,100.00
2023-12-11T12:59:55.605Z,100.00
2023-12-11T13:02:26.818Z,100.00
2023-12-11T13:04:58.575Z,100.00
2023-12-11T13:07:30.013Z,100.00
2023-12-11T13:10:10.480Z,100.00
2023-12-11T13:12:41.599Z,100.00
2023-12-11T13:15:11.080Z,100.00
2023-12-11T13:17:42.325Z,100.00
2023-12-11T13:20:15.056Z,100.00
2023-12-11T13:22:46.196Z,100.00
2023-12-11T13:25:17.898Z,100.00
2023-12-11T13:27:49.247Z,100.00
2023-12-11T13:30:18.605Z,100.00
2023-12-11T13:32:49.722Z,100.00
2023-12-11T13:35:21.617Z,100.00
2023-12-11T13:37:52.732Z,100.00
2023-12-11T13:40:24.483Z,100.00
2023-12-11T13:42:55.825Z,100.00
2023-12-11T13:45:27.019Z,100.00
2023-12-11T13:47:56.395Z,100.00
2023-12-11T13:50:27.598Z,100.00
2023-12-11T13:52:58.812Z,100.00
2023-12-11T13:55:37.399Z,100.00
2023-12-11T13:58:08.558Z,100.00
2023-12-11T14:00:39.851Z,100.00
2023-12-11T14:03:11.198Z,100.00
2023-12-11T14:05:42.725Z,100.00
2023-12-11T14:08:13.968Z,100.00
2023-12-11T14:10:45.352Z,100.00
2023-12-11T14:13:16.480Z,100.00
2023-12-11T14:15:49.111Z,100.00
2023-12-11T14:18:20.176Z,100.00
2023-12-11T14:20:49.717Z,100.00
2023-12-11T14:23:20.817Z,100.00
2023-12-11T14:25:50.152Z,100.00
2023-12-11T14:28:21.280Z,100.00
2023-12-11T14:30:52.439Z,100.00
2023-12-11T14:33:21.823Z,100.00
2023-12-11T14:35:53.312Z,100.00
2023-12-11T14:38:24.867Z,100.00
2023-12-11T14:40:55.961Z,100.00
2023-12-11T14:43:25.590Z,100.00
2023-12-11T14:45:59.805Z,100.00
2023-12-11T14:48:30.816Z,100.00
2023-12-11T14:51:00.287Z,100.00
2023-12-11T14:53:31.941Z,100.00
2023-12-11T14:56:04.262Z,100.00
2023-12-11T14:58:35.469Z,100.00
2023-12-11T15:01:07.197Z,100.00
2023-12-11T15:03:38.729Z,100.00
2023-12-11T15:06:11.202Z,100.00
2023-12-11T15:08:42.240Z,100.00
2023-12-11T15:11:11.604Z,100.00
2023-12-11T15:13:42.681Z,100.00
2023-12-11T15:16:14.421Z,100.00
2023-12-11T15:18:46.795Z,100.00
2023-12-11T15:21:19.669Z,100.00
2023-12-11T15:23:50.687Z,100.00
2023-12-11T15:26:20.635Z,100.00
2023-12-11T15:28:51.802Z,100.00
2023-12-11T15:31:26.597Z,100.00
2023-12-11T15:33:58.739Z,100.00
2023-12-11T15:36:29.924Z,100.00
2023-12-11T15:39:01.156Z,100.00
2023-12-11T15:41:30.490Z,100.00
2023-12-11T15:44:01.739Z,100.00
2023-12-11T15:46:33.116Z,100.00
2023-12-11T15:49:04.288Z,100.00
2023-12-11T15:51:35.441Z,100.00
2023-12-11T15:54:08.548Z,100.00
2023-12-11T15:56:39.600Z,100.00
2023-12-11T15:59:08.909Z,100.00
2023-12-11T16:01:40.215Z,100.00
2023-12-11T16:04:11.485Z,100.00
2023-12-11T16:06:44.096Z,100.00
2023-12-11T16:09:15.175Z,100.00
2023-12-11T16:11:47.814Z,100.00
2023-12-11T16:14:18.915Z,100.00
2023-12-11T16:16:48.313Z,100.00
2023-12-11T16:19:30.182Z,100.00
2023-12-11T16:22:01.501Z,100.00
2023-12-11T16:24:32.657Z,100.00
2023-12-11T16:27:01.992Z,100.00
2023-12-11T16:29:34.732Z,100.00
2023-12-11T16:32:08.039Z,100.00
2023-12-11T16:34:39.144Z,100.00
2023-12-11T16:37:11.063Z,100.00
2023-12-11T16:39:44.980Z,100.00
2023-12-11T16:42:16.158Z,100.00
2023-12-11T16:44:49.307Z,100.00
2023-12-11T16:47:21.541Z,100.00
2023-12-11T16:50:01.156Z,100.00
2023-12-11T16:52:38.442Z,100.00
2023-12-11T16:55:10.076Z,100.00
2023-12-11T16:57:41.298Z,100.00
2023-12-11T17:00:14.411Z,100.00
2023-12-11T17:02:45.716Z,100.00
2023-12-11T17:05:17.152Z,100.00
2023-12-11T17:07:48.421Z,100.00
2023-12-11T17:10:17.849Z,100.00
2023-12-11T17:12:49.014Z,100.00
2023-12-11T17:15:20.839Z,100.00
2023-12-11T17:17:52.503Z,100.00
2023-12-11T17:20:23.708Z,100.00
2023-12-11T17:22:53.072Z,100.00
2023-12-11T17:25:24.128Z,100.00
2023-12-11T17:27:55.898Z,100.00
2023-12-11T17:30:26.952Z,100.00
2023-12-11T17:32:56.396Z,100.00
2023-12-11T17:35:27.610Z,100.00
2023-12-11T17:37:58.755Z,100.00
2023-12-11T17:40:30.597Z,100.00
2023-12-11T17:43:01.930Z,100.00
2023-12-11T17:45:33.489Z,100.00
2023-12-11T17:48:05.257Z,100.00
2023-12-11T17:50:37.791Z,100.00
2023-12-11T17:53:09.406Z,100.00
2023-12-11T17:55:40.982Z,100.00
2023-12-11T17:58:20.288Z,100.00
2023-12-11T18:01:15.797Z,100.00
2023-12-11T18:04:06.603Z,100.00
2023-12-11T18:10:05.502Z,100.00
2023-12-11T18:13:01.390Z,100.00
2023-12-11T18:15:46.562Z,100.00
2023-12-11T18:18:17.774Z,100.00
2023-12-11T18:20:47.165Z,100.00
2023-12-11T18:23:18.203Z,100.00
2023-12-11T18:25:47.590Z,100.00
2023-12-11T18:28:21.066Z,100.00
2023-12-11T18:30:52.223Z,100.00
2023-12-11T18:33:24.673Z,100.00
2023-12-11T18:35:56.091Z,100.00
2023-12-11T18:38:27.181Z,100.00
2023-12-11T18:40:56.533Z,100.00
2023-12-11T18:43:27.975Z,100.00
2023-12-11T18:45:59.152Z,100.00
2023-12-11T18:48:43.650Z,100.00
2023-12-11T18:54:54.446Z,100.00
2023-12-11T18:57:23.844Z,100.00
2023-12-11T18:59:55.086Z,100.00
2023-12-11T19:02:27.149Z,100.00
2023-12-11T19:04:58.605Z,100.00
2023-12-11T19:07:30.102Z,100.00
2023-12-11T19:10:29.513Z,100.00
2023-12-11T19:12:53.424Z,100.00
2023-12-11T19:15:24.796Z,100.00
2023-12-11T19:17:56.036Z,100.00
2023-12-11T19:20:27.211Z,100.00
2023-12-11T19:22:56.681Z,100.00
2023-12-11T19:25:27.912Z,100.00
2023-12-11T19:28:01.940Z,100.00
2023-12-11T19:30:34.219Z,100.00
2023-12-11T19:33:06.445Z,100.00
2023-12-11T19:35:38.127Z,100.00
2023-12-11T19:38:09.227Z,100.00
2023-12-11T19:40:42.659Z,100.00
2023-12-11T19:43:14.548Z,100.00
2023-12-11T19:45:48.608Z,100.00
2023-12-11T19:48:20.252Z,100.00
2023-12-11T19:50:51.349Z,100.00
2023-12-11T19:53:20.654Z,100.00
2023-12-11T19:55:51.718Z,100.00
2023-12-11T19:58:21.565Z,100.00
2023-12-11T20:00:53.522Z,100.00
2023-12-11T20:03:25.352Z,100.00
2023-12-11T20:05:56.493Z,100.00
2023-12-11T20:08:27.734Z,100.00
2023-12-11T20:10:58.921Z,100.00
2023-12-11T20:13:28.680Z,100.00
2023-12-11T20:16:00.268Z,100.00
2023-12-11T20:18:32.095Z,100.00
2023-12-11T20:21:05.437Z,100.00
2023-12-11T20:23:37.334Z,100.00
2023-12-11T20:26:10.135Z,100.00
2023-12-11T20:28:41.329Z,100.00
2023-12-11T20:31:16.551Z,100.00
2023-12-11T20:33:49.652Z,100.00
2023-12-11T20:36:21.463Z,100.00
2023-12-11T20:38:52.508Z,100.00
2023-12-11T20:41:22.597Z,100.00
2023-12-11T20:43:56.837Z,100.00
2023-12-11T20:46:28.209Z,100.00
2023-12-11T20:48:59.766Z,100.00
2023-12-11T20:51:31.058Z,100.00
2023-12-11T20:54:07.357Z,100.00
2023-12-11T20:57:15.910Z,100.00
2023-12-11T21:00:34.006Z,100.00
2023-12-11T21:04:35.436Z,100.00
2023-12-11T21:07:25.106Z,100.00
2023-12-11T21:09:32.796Z,100.00
2023-12-11T21:12:04.339Z,100.00
2023-12-11T21:14:35.352Z,100.00
2023-12-11T21:17:30.263Z,100.00
2023-12-11T21:19:56.597Z,100.00
2023-12-11T21:25:41.237Z,100.00
2023-12-11T21:31:50.873Z,100.00
2023-12-11T21:34:57.748Z,100.00
2023-12-11T21:37:59.936Z,100.00
2023-12-11T21:40:31.143Z,100.00
2023-12-11T21:43:02.351Z,100.00
2023-12-11T21:45:33.559Z,100.00
2023-12-11T21:48:02.979Z,100.00
2023-12-11T21:50:34.229Z,100.00
2023-12-11T21:53:05.401Z,100.00
2023-12-11T21:55:36.495Z,100.00
2023-12-11T21:58:05.804Z,100.00
2023-12-11T22:00:38.644Z,100.00
2023-12-11T22:03:09.755Z,100.00
2023-12-11T22:05:40.943Z,100.00
2023-12-11T22:08:12.249Z,100.00
2023-12-11T22:10:48.393Z,100.00
2023-12-11T22:13:27.364Z,100.00
2023-12-11T22:15:59.148Z,100.00
2023-12-11T22:18:30.661Z,100.00
2023-12-11T22:21:02.327Z,100.00
2023-12-11T22:23:33.501Z,100.00
2023-12-11T22:26:03.067Z,100.00
2023-12-11T22:28:34.273Z,100.00
2023-12-11T22:31:07.396Z,100.00
2023-12-11T22:33:38.631Z,100.00
2023-12-11T22:36:20.380Z,100.00
2023-12-11T22:38:51.432Z,100.00
2023-12-11T22:41:27.821Z,100.00
2023-12-11T22:43:58.930Z,100.00
2023-12-11T22:46:30.397Z,100.00
2023-12-11T22:49:01.590Z,100.00
2023-12-11T22:51:32.891Z,100.00
2023-12-11T22:54:04.039Z,100.00
2023-12-11T22:56:35.129Z,100.00
2023-12-11T22:59:04.505Z,100.00
2023-12-11T23:02:47.929Z,100.00
2023-12-11T23:05:19.790Z,100.00
2023-12-11T23:07:51.101Z,100.00
2023-12-11T23:10:21.017Z,100.00
2023-12-11T23:12:53.567Z,100.00
2023-12-11T23:15:22.912Z,100.00
2023-12-11T23:17:54.022Z,100.00
2023-12-11T23:20:23.402Z,100.00
2023-12-11T23:22:55.105Z,100.00
2023-12-11T23:25:26.300Z,100.00
2023-12-11T23:27:57.443Z,100.00
2023-12-11T23:30:28.531Z,100.00
2023-12-11T23:32:58.068Z,100.00
2023-12-11T23:35:29.472Z,100.00
2023-12-11T23:38:01.337Z,100.00
2023-12-11T23:40:32.464Z,100.00
2023-12-11T23:43:01.841Z,100.00
2023-12-11T23:45:33.043Z,100.00
2023-12-11T23:48:02.430Z,100.00
2023-12-11T23:50:33.690Z,100.00
2023-12-11T23:53:05.182Z,100.00
2023-12-11T23:55:36.574Z,100.00
2023-12-11T23:58:07.903Z,100.00
